createdAt,value
2018-12-18T00:00:04.739Z,4.12
2018-12-18T00:01:04.698Z,4.15
2018-12-18T00:02:04.580Z,4.07
2018-12-18T00:03:04.607Z,4.07
2018-12-18T00:04:04.412Z,4.01
2018-12-18T00:05:04.414Z,4.18
2018-12-18T00:06:04.247Z,4.11
2018-12-18T00:07:04.226Z,4.15
2018-12-18T00:08:04.086Z,4.11
2018-12-18T00:09:04.032Z,4.12
2018-12-18T00:10:03.919Z,4.15
2018-12-18T00:11:03.943Z,4.08
2018-12-18T00:12:03.753Z,4.11
2018-12-18T00:13:03.751Z,4.22
2018-12-18T00:14:03.594Z,4.22
2018-12-18T00:15:03.557Z,4.12
2018-12-18T00:16:03.429Z,4.25
2018-12-18T00:17:03.386Z,4.15
2018-12-18T00:18:03.293Z,4.20
2018-12-18T00:19:03.278Z,4.28
2018-12-18T00:20:03.099Z,4.23
2018-12-18T00:21:03.083Z,4.19
2018-12-18T00:22:02.934Z,4.23
2018-12-18T00:23:02.899Z,4.25
2018-12-18T00:24:02.768Z,4.19
2018-12-18T00:25:02.802Z,4.28
2018-12-18T00:26:02.607Z,4.22
2018-12-18T00:27:02.613Z,4.25
2018-12-18T00:28:02.441Z,4.22
2018-12-18T00:29:02.419Z,4.28
2018-12-18T00:30:02.284Z,4.26
2018-12-18T00:31:02.233Z,4.20
2018-12-18T00:32:02.114Z,4.20
2018-12-18T00:33:02.141Z,4.26
2018-12-18T00:34:01.950Z,4.26
2018-12-18T00:35:01.959Z,4.22
2018-12-18T00:36:01.786Z,4.28
2018-12-18T00:37:01.761Z,4.23
2018-12-18T00:38:01.625Z,4.19
2018-12-18T00:39:01.578Z,4.16
2018-12-18T00:40:01.455Z,4.20
2018-12-18T00:41:01.483Z,4.20
2018-12-18T00:42:01.296Z,4.12
2018-12-18T00:43:01.285Z,4.25
2018-12-18T00:44:01.126Z,4.25
2018-12-18T00:45:01.098Z,4.22
2018-12-18T00:46:00.970Z,4.25
2018-12-18T00:47:00.904Z,4.20
2018-12-18T00:48:00.800Z,4.12
2018-12-18T00:49:00.815Z,4.15
2018-12-18T00:50:00.637Z,4.11
2018-12-18T00:51:00.621Z,4.12
2018-12-18T00:52:00.477Z,4.08
2018-12-18T00:53:00.431Z,4.19
2018-12-18T00:54:00.311Z,4.12
2018-12-18T00:55:00.341Z,4.20
2018-12-18T00:56:00.142Z,4.18
2018-12-18T00:57:00.149Z,4.12
2018-12-18T00:57:59.976Z,4.23
2018-12-18T00:58:59.957Z,4.26
2018-12-18T00:59:59.814Z,4.20
2018-12-18T01:00:59.766Z,4.19
2018-12-18T01:01:59.648Z,4.19
2018-12-18T01:02:59.676Z,4.15
2018-12-18T01:03:59.487Z,4.25
2018-12-18T01:04:59.484Z,4.16
2018-12-18T01:05:59.319Z,4.20
2018-12-18T01:06:59.289Z,4.20
2018-12-18T01:07:59.159Z,4.23
2018-12-18T01:08:59.102Z,4.20
2018-12-18T01:09:58.993Z,4.26
2018-12-18T01:10:59.013Z,4.28
2018-12-18T01:11:58.829Z,4.20
2018-12-18T01:12:58.821Z,4.19
2018-12-18T01:13:58.666Z,4.20
2018-12-18T01:14:58.628Z,4.22
2018-12-18T01:15:58.503Z,4.23
2018-12-18T01:16:58.438Z,4.22
2018-12-18T01:17:58.335Z,4.20
2018-12-18T01:18:58.350Z,4.29
2018-12-18T01:19:58.173Z,4.20
2018-12-18T01:20:58.160Z,4.19
2018-12-18T01:21:58.009Z,4.22
2018-12-18T01:22:57.966Z,4.23
2018-12-18T01:23:57.841Z,4.20
2018-12-18T01:24:57.877Z,4.20
2018-12-18T01:25:57.678Z,4.25
2018-12-18T01:26:57.685Z,4.19
2018-12-18T01:27:57.516Z,4.29
2018-12-18T01:28:57.492Z,4.19
2018-12-18T01:29:57.359Z,4.23
2018-12-18T01:30:57.298Z,4.23
2018-12-18T01:31:57.187Z,4.12
2018-12-18T01:32:57.215Z,4.16
2018-12-18T01:33:59.444Z,4.20
2018-12-18T01:34:57.020Z,4.11
2018-12-18T01:35:56.861Z,4.25
2018-12-18T01:36:56.829Z,4.10
2018-12-18T01:37:56.696Z,4.04
2018-12-18T01:38:56.638Z,4.11
2018-12-18T01:39:56.531Z,4.10
2018-12-18T01:40:56.547Z,4.05
2018-12-18T01:41:56.362Z,4.16
2018-12-18T01:42:56.357Z,4.12
2018-12-18T01:43:56.198Z,4.12
2018-12-18T01:44:56.166Z,4.18
2018-12-18T01:45:56.065Z,4.16
2018-12-18T01:46:55.983Z,4.05
2018-12-18T01:47:55.871Z,4.12
2018-12-18T01:48:55.880Z,4.10
2018-12-18T01:49:55.705Z,4.10
2018-12-18T01:50:55.692Z,4.11
2018-12-18T01:51:55.540Z,4.07
2018-12-18T01:52:55.499Z,4.04
2018-12-18T01:53:55.375Z,4.00
2018-12-18T01:54:55.309Z,4.04
2018-12-18T01:55:55.214Z,4.08
2018-12-18T01:56:55.221Z,3.97
2018-12-18T01:57:55.046Z,4.01
2018-12-18T01:58:55.029Z,3.98
2018-12-18T01:59:54.880Z,3.98
2018-12-18T02:00:54.834Z,3.98
2018-12-18T02:01:54.723Z,3.97
2018-12-18T02:02:54.748Z,3.97
2018-12-18T02:03:54.555Z,3.89
2018-12-18T02:04:54.555Z,3.86
2018-12-18T02:05:54.394Z,3.97
2018-12-18T02:06:54.363Z,3.89
2018-12-18T02:07:54.232Z,3.97
2018-12-18T02:08:54.181Z,3.89
2018-12-18T02:09:54.056Z,3.83
2018-12-18T02:10:54.084Z,3.97
2018-12-18T02:11:53.899Z,3.84
2018-12-18T02:12:53.893Z,4.00
2018-12-18T02:13:53.732Z,3.98
2018-12-18T02:14:53.703Z,3.97
2018-12-18T02:15:53.568Z,4.01
2018-12-18T02:16:53.515Z,3.87
2018-12-18T02:17:53.405Z,4.01
2018-12-18T02:18:53.423Z,3.98
2018-12-18T02:19:53.238Z,3.98
2018-12-18T02:20:53.229Z,3.89
2018-12-18T02:21:53.076Z,3.89
2018-12-18T02:22:53.046Z,3.89
2018-12-18T02:23:52.907Z,3.87
2018-12-18T02:24:52.848Z,3.93
2018-12-18T02:25:52.745Z,3.92
2018-12-18T02:26:52.758Z,3.93
2018-12-18T02:27:52.580Z,3.93
2018-12-18T02:28:52.568Z,3.83
2018-12-18T02:29:52.453Z,3.83
2018-12-18T02:30:52.373Z,3.75
2018-12-18T02:31:52.252Z,3.75
2018-12-18T02:32:52.284Z,3.68
2018-12-18T02:33:52.087Z,3.68
2018-12-18T02:34:52.102Z,3.80
2018-12-18T02:35:51.922Z,3.71
2018-12-18T02:36:51.901Z,3.65
2018-12-18T02:37:51.765Z,3.61
2018-12-18T02:38:51.710Z,3.59
2018-12-18T02:39:51.653Z,3.64
2018-12-18T02:40:51.623Z,3.61
2018-12-18T02:41:51.435Z,3.53
2018-12-18T02:42:51.429Z,3.53
2018-12-18T02:43:51.264Z,3.51
2018-12-18T02:44:51.237Z,3.53
2018-12-18T02:45:51.104Z,3.50
2018-12-18T02:46:51.045Z,3.65
2018-12-18T02:47:50.934Z,3.64
2018-12-18T02:48:52.903Z,3.53
2018-12-18T02:49:50.770Z,3.54
2018-12-18T02:50:51.788Z,3.51
2018-12-18T02:51:50.605Z,3.48
2018-12-18T02:52:52.618Z,3.51
2018-12-18T02:53:50.444Z,3.41
2018-12-18T02:54:51.409Z,3.32
2018-12-18T02:55:50.280Z,3.35
2018-12-18T02:56:50.291Z,3.34
2018-12-18T02:57:50.112Z,3.11
2018-12-18T02:58:50.099Z,3.14
2018-12-18T02:59:49.945Z,3.22
2018-12-18T03:00:49.909Z,3.16
2018-12-18T03:01:49.783Z,3.11
2018-12-18T03:02:49.722Z,3.19
2018-12-18T03:03:49.618Z,3.14
2018-12-18T03:04:49.624Z,3.11
2018-12-18T03:05:49.452Z,3.19
2018-12-18T03:06:49.433Z,3.09
2018-12-18T03:07:49.301Z,3.09
2018-12-18T03:08:49.247Z,3.09
2018-12-18T03:09:49.137Z,3.07
2018-12-18T03:10:49.151Z,2.96
2018-12-18T03:11:48.958Z,3.03
2018-12-18T03:12:48.959Z,3.06
2018-12-18T03:13:48.794Z,3.01
2018-12-18T03:14:48.772Z,2.96
2018-12-18T03:15:48.632Z,3.06
2018-12-18T03:16:48.581Z,3.01
2018-12-18T03:17:48.464Z,2.96
2018-12-18T03:18:48.489Z,3.07
2018-12-18T03:19:48.295Z,2.98
2018-12-18T03:20:48.299Z,3.03
2018-12-18T03:21:48.130Z,3.01
2018-12-18T03:22:48.104Z,3.01
2018-12-18T03:23:47.967Z,3.03
2018-12-18T03:24:47.920Z,2.99
2018-12-18T03:25:47.801Z,2.96
2018-12-18T03:26:47.824Z,2.99
2018-12-18T03:27:47.636Z,2.96
2018-12-18T03:28:47.635Z,3.01
2018-12-18T03:29:47.471Z,3.04
2018-12-18T03:30:47.450Z,2.96
2018-12-18T03:31:47.306Z,2.99
2018-12-18T03:32:47.256Z,3.03
2018-12-18T03:33:47.143Z,3.04
2018-12-18T03:34:47.156Z,3.04
2018-12-18T03:35:46.972Z,2.99
2018-12-18T03:36:46.967Z,2.92
2018-12-18T03:37:46.810Z,2.92
2018-12-18T03:38:46.778Z,2.93
2018-12-18T03:39:46.646Z,2.88
2018-12-18T03:40:46.586Z,2.88
2018-12-18T03:41:46.482Z,2.88
2018-12-18T03:42:46.496Z,2.89
2018-12-18T03:43:46.313Z,2.92
2018-12-18T03:44:46.307Z,2.84
2018-12-18T03:45:46.228Z,3.01
2018-12-18T03:46:46.113Z,2.93
2018-12-18T03:47:45.985Z,2.95
2018-12-18T03:48:45.922Z,2.93
2018-12-18T03:49:45.820Z,3.03
2018-12-18T03:50:45.832Z,2.93
2018-12-18T03:51:45.654Z,2.98
2018-12-18T03:52:45.640Z,2.93
2018-12-18T03:53:45.487Z,2.93
2018-12-18T03:54:45.449Z,2.93
2018-12-18T03:55:45.322Z,2.98
2018-12-18T03:56:45.259Z,2.89
2018-12-18T03:57:45.185Z,2.88
2018-12-18T03:58:45.178Z,2.92
2018-12-18T03:59:44.996Z,2.84
2018-12-18T04:00:44.976Z,2.78
2018-12-18T04:01:44.826Z,2.77
2018-12-18T04:02:44.787Z,2.75
2018-12-18T04:03:44.663Z,2.85
2018-12-18T04:04:44.696Z,2.81
2018-12-18T04:05:44.494Z,2.81
2018-12-18T04:06:44.505Z,2.75
2018-12-18T04:07:44.330Z,2.85
2018-12-18T04:08:44.310Z,2.84
2018-12-18T04:09:44.166Z,2.88
2018-12-18T04:10:44.120Z,2.80
2018-12-18T04:11:44.006Z,2.81
2018-12-18T04:12:44.028Z,2.85
2018-12-18T04:13:43.859Z,2.81
2018-12-18T04:14:43.853Z,2.77
2018-12-18T04:15:43.675Z,2.84
2018-12-18T04:16:43.647Z,2.84
2018-12-18T04:17:43.509Z,2.80
2018-12-18T04:18:43.456Z,2.80
2018-12-18T04:19:43.348Z,2.73
2018-12-18T04:20:43.384Z,2.78
2018-12-18T04:21:44.116Z,2.81
2018-12-18T04:22:43.176Z,2.78
2018-12-18T04:23:43.007Z,2.81
2018-12-18T04:24:42.984Z,2.73
2018-12-18T04:25:42.842Z,2.68
2018-12-18T04:26:42.790Z,2.68
2018-12-18T04:27:42.676Z,2.73
2018-12-18T04:28:42.703Z,2.85
2018-12-18T04:29:42.507Z,2.80
2018-12-18T04:30:42.505Z,2.78
2018-12-18T04:31:42.346Z,2.80
2018-12-18T04:32:42.318Z,2.85
2018-12-18T04:33:42.182Z,2.85
2018-12-18T04:34:43.164Z,2.77
2018-12-18T04:35:42.012Z,2.77
2018-12-18T04:36:42.040Z,2.80
2018-12-18T04:37:41.851Z,2.84
2018-12-18T04:38:41.847Z,2.80
2018-12-18T04:39:41.685Z,2.75
2018-12-18T04:40:41.659Z,2.73
2018-12-18T04:41:41.520Z,2.73
2018-12-18T04:42:41.467Z,2.81
2018-12-18T04:43:41.356Z,2.67
2018-12-18T04:44:41.379Z,2.62
2018-12-18T04:45:41.189Z,2.70
2018-12-18T04:46:41.182Z,2.63
2018-12-18T04:47:41.022Z,2.67
2018-12-18T04:48:40.988Z,2.62
2018-12-18T04:49:40.856Z,2.70
2018-12-18T04:50:40.783Z,2.63
2018-12-18T04:51:40.696Z,2.68
2018-12-18T04:52:40.707Z,2.66
2018-12-18T04:53:40.533Z,2.62
2018-12-18T04:54:40.516Z,2.68
2018-12-18T04:55:40.359Z,2.53
2018-12-18T04:56:40.329Z,2.67
2018-12-18T04:57:40.193Z,2.63
2018-12-18T04:58:40.137Z,2.66
2018-12-18T04:59:40.034Z,2.59
2018-12-18T05:00:40.050Z,2.62
2018-12-18T05:01:39.862Z,2.67
2018-12-18T05:02:39.855Z,2.66
2018-12-18T05:03:39.695Z,2.55
2018-12-18T05:04:39.664Z,2.53
2018-12-18T05:05:39.532Z,2.59
2018-12-18T05:06:39.503Z,2.60
2018-12-18T05:07:39.363Z,2.63
2018-12-18T05:08:39.382Z,2.56
2018-12-18T05:09:39.202Z,2.62
2018-12-18T05:10:39.193Z,2.66
2018-12-18T05:11:39.033Z,2.66
2018-12-18T05:12:39.002Z,2.67
2018-12-18T05:13:38.867Z,2.62
2018-12-18T05:14:38.808Z,2.62
2018-12-18T05:15:38.707Z,2.60
2018-12-18T05:16:38.729Z,2.59
2018-12-18T05:17:38.535Z,2.62
2018-12-18T05:18:38.563Z,2.49
2018-12-18T05:19:38.374Z,2.50
2018-12-18T05:20:38.335Z,2.55
2018-12-18T05:21:38.204Z,2.57
2018-12-18T05:22:38.146Z,2.52
2018-12-18T05:23:38.037Z,2.53
2018-12-18T05:24:38.053Z,2.50
2018-12-18T05:25:37.875Z,2.55
2018-12-18T05:26:37.867Z,2.53
2018-12-18T05:27:37.709Z,2.53
2018-12-18T05:28:37.668Z,2.52
2018-12-18T05:29:37.542Z,2.59
2018-12-18T05:30:37.479Z,2.55
2018-12-18T05:31:37.378Z,2.52
2018-12-18T05:32:37.394Z,2.50
2018-12-18T05:33:37.211Z,2.55
2018-12-18T05:34:37.199Z,2.53
2018-12-18T05:35:37.044Z,2.49
2018-12-18T05:36:37.010Z,2.49
2018-12-18T05:37:36.881Z,2.60
2018-12-18T05:38:36.813Z,2.55
2018-12-18T05:39:36.710Z,2.74
2018-12-18T05:40:36.726Z,2.55
2018-12-18T05:41:36.550Z,2.62
2018-12-18T05:42:36.539Z,2.68
2018-12-18T05:43:36.379Z,2.68
2018-12-18T05:44:36.342Z,2.74
2018-12-18T05:45:36.212Z,2.71
2018-12-18T05:46:36.155Z,2.67
2018-12-18T05:47:36.051Z,2.67
2018-12-18T05:48:36.070Z,2.67
2018-12-18T05:49:35.883Z,2.59
2018-12-18T05:50:35.874Z,2.68
2018-12-18T05:51:35.730Z,2.68
2018-12-18T05:52:35.684Z,2.68
2018-12-18T05:53:35.548Z,2.71
2018-12-18T05:54:35.486Z,2.66
2018-12-18T05:55:35.387Z,2.68
2018-12-18T05:56:35.397Z,2.62
2018-12-18T05:57:35.222Z,2.57
2018-12-18T05:58:35.208Z,2.48
2018-12-18T05:59:35.058Z,2.52
2018-12-18T06:00:35.020Z,2.57
2018-12-18T06:01:34.886Z,2.62
2018-12-18T06:02:34.932Z,2.50
2018-12-18T06:03:34.725Z,2.50
2018-12-18T06:04:34.740Z,2.55
2018-12-18T06:05:34.553Z,2.52
2018-12-18T06:06:34.545Z,2.53
2018-12-18T06:07:34.392Z,2.50
2018-12-18T06:08:34.351Z,2.41
2018-12-18T06:09:34.228Z,2.50
2018-12-18T06:10:34.163Z,2.42
2018-12-18T06:11:34.056Z,2.50
2018-12-18T06:12:34.079Z,2.49
2018-12-18T06:13:33.895Z,2.55
2018-12-18T06:14:33.883Z,2.62
2018-12-18T06:15:33.728Z,2.55
2018-12-18T06:16:33.690Z,2.59
2018-12-18T06:17:33.561Z,2.53
2018-12-18T06:18:33.497Z,2.53
2018-12-18T06:19:33.411Z,2.49
2018-12-18T06:20:34.431Z,2.56
2018-12-18T06:21:33.230Z,2.41
2018-12-18T06:22:33.221Z,2.57
2018-12-18T06:23:33.065Z,2.59
2018-12-18T06:24:34.047Z,2.42
2018-12-18T06:25:32.900Z,2.49
2018-12-18T06:26:32.830Z,2.48
2018-12-18T06:27:32.734Z,2.46
2018-12-18T06:28:32.743Z,2.49
2018-12-18T06:29:32.573Z,2.52
2018-12-18T06:30:32.550Z,2.46
2018-12-18T06:31:32.402Z,2.42
2018-12-18T06:32:32.358Z,2.44
2018-12-18T06:33:32.235Z,2.42
2018-12-18T06:34:32.273Z,2.44
2018-12-18T06:35:32.072Z,2.44
2018-12-18T06:36:33.102Z,2.42
2018-12-18T06:37:31.906Z,2.50
2018-12-18T06:38:31.887Z,2.41
2018-12-18T06:39:31.750Z,2.32
2018-12-18T06:40:31.695Z,2.28
2018-12-18T06:41:31.572Z,2.26
2018-12-18T06:42:31.607Z,2.24
2018-12-18T06:43:31.409Z,2.24
2018-12-18T06:44:31.414Z,2.23
2018-12-18T06:45:31.242Z,2.20
2018-12-18T06:46:31.219Z,2.24
2018-12-18T06:47:31.072Z,2.28
2018-12-18T06:48:31.030Z,2.21
2018-12-18T06:49:30.912Z,2.17
2018-12-18T06:50:30.940Z,2.23
2018-12-18T06:51:30.745Z,2.30
2018-12-18T06:52:30.749Z,2.21
2018-12-18T06:53:30.580Z,2.19
2018-12-18T06:54:30.558Z,2.21
2018-12-18T06:55:30.419Z,2.16
2018-12-18T06:56:30.365Z,2.21
2018-12-18T06:57:30.246Z,2.16
2018-12-18T06:58:30.278Z,2.14
2018-12-18T06:59:30.077Z,2.14
2018-12-18T07:00:30.082Z,2.10
2018-12-18T07:01:29.915Z,1.92
2018-12-18T07:02:29.896Z,1.95
2018-12-18T07:03:29.749Z,1.87
2018-12-18T07:04:29.701Z,1.84
2018-12-18T07:05:29.577Z,1.83
2018-12-18T07:06:29.613Z,1.79
2018-12-18T07:07:29.421Z,1.82
2018-12-18T07:08:29.423Z,1.76
2018-12-18T07:09:29.249Z,1.76
2018-12-18T07:10:29.229Z,1.73
2018-12-18T07:11:29.083Z,1.66
2018-12-18T07:12:29.039Z,1.73
2018-12-18T07:13:28.928Z,1.62
2018-12-18T07:14:28.947Z,1.62
2018-12-18T07:15:28.749Z,1.64
2018-12-18T07:16:28.673Z,1.59
2018-12-18T07:17:28.584Z,1.61
2018-12-18T07:18:28.569Z,1.56
2018-12-18T07:19:28.416Z,1.61
2018-12-18T07:20:28.374Z,1.59
2018-12-18T07:21:28.249Z,1.50
2018-12-18T07:22:28.285Z,1.61
2018-12-18T07:23:28.082Z,1.54
2018-12-18T07:24:28.093Z,1.50
2018-12-18T07:25:27.917Z,1.48
2018-12-18T07:26:27.899Z,1.48
2018-12-18T07:27:27.749Z,1.47
2018-12-18T07:28:27.714Z,1.47
2018-12-18T07:29:27.583Z,1.50
2018-12-18T07:30:27.518Z,1.44
2018-12-18T07:31:27.417Z,1.48
2018-12-18T07:32:27.426Z,1.38
2018-12-18T07:33:27.258Z,1.38
2018-12-18T07:34:33.241Z,1.54
2018-12-18T07:35:27.090Z,1.48
2018-12-18T07:36:27.053Z,1.46
2018-12-18T07:37:26.919Z,1.47
2018-12-18T07:38:26.855Z,1.48
2018-12-18T07:39:26.758Z,1.52
2018-12-18T07:40:26.764Z,1.47
2018-12-18T07:41:26.927Z,1.43
2018-12-18T07:42:26.576Z,1.50
2018-12-18T07:43:26.418Z,1.41
2018-12-18T07:44:26.396Z,1.32
2018-12-18T07:45:26.250Z,1.36
2018-12-18T07:46:26.188Z,1.28
2018-12-18T07:47:26.083Z,1.30
2018-12-18T07:48:26.108Z,1.44
2018-12-18T07:49:25.917Z,1.36
2018-12-18T07:50:25.909Z,1.41
2018-12-18T07:51:25.749Z,1.38
2018-12-18T07:52:25.719Z,1.46
2018-12-18T07:53:25.587Z,1.48
2018-12-18T07:54:25.526Z,1.50
2018-12-18T07:55:25.414Z,1.48
2018-12-18T07:56:25.438Z,1.50
2018-12-18T07:57:25.252Z,1.50
2018-12-18T07:58:25.244Z,1.44
2018-12-18T07:59:25.080Z,1.46
2018-12-18T08:00:25.054Z,1.52
2018-12-18T08:01:24.913Z,1.50
2018-12-18T08:02:24.862Z,1.52
2018-12-18T08:03:24.744Z,1.52
2018-12-18T08:04:24.774Z,1.52
2018-12-18T08:05:29.854Z,1.48
2018-12-18T08:06:24.582Z,1.54
2018-12-18T08:07:24.419Z,1.50
2018-12-18T08:08:24.402Z,1.50
2018-12-18T08:09:24.248Z,1.52
2018-12-18T08:10:25.225Z,1.54
2018-12-18T08:11:24.079Z,1.54
2018-12-18T08:12:24.106Z,1.52
2018-12-18T08:13:23.913Z,1.48
2018-12-18T08:14:24.944Z,1.52
2018-12-18T08:15:23.742Z,1.52
2018-12-18T08:16:23.726Z,1.62
2018-12-18T08:17:23.587Z,1.66
2018-12-18T08:18:23.535Z,1.77
2018-12-18T08:19:23.412Z,1.83
2018-12-18T08:20:23.445Z,1.84
2018-12-18T08:21:23.245Z,2.01
2018-12-18T08:22:23.254Z,2.02
2018-12-18T08:23:23.080Z,1.98
2018-12-18T08:24:23.061Z,2.05
2018-12-18T08:25:22.911Z,2.19
2018-12-18T08:26:22.870Z,2.12
2018-12-18T08:27:22.745Z,2.24
2018-12-18T08:28:22.675Z,2.35
2018-12-18T08:29:22.580Z,2.49
2018-12-18T08:30:22.589Z,2.50
2018-12-18T08:31:22.413Z,2.60
2018-12-18T08:32:22.398Z,2.75
2018-12-18T08:33:22.247Z,2.78
2018-12-18T08:34:22.207Z,2.98
2018-12-18T08:35:22.077Z,2.98
2018-12-18T08:36:22.015Z,3.03
2018-12-18T08:37:21.913Z,3.11
2018-12-18T08:38:21.924Z,3.14
2018-12-18T08:39:21.745Z,3.34
2018-12-18T08:40:21.734Z,3.35
2018-12-18T08:41:21.579Z,3.56
2018-12-18T08:42:21.540Z,3.64
2018-12-18T08:43:21.418Z,3.74
2018-12-18T08:44:21.410Z,3.84
2018-12-18T08:45:21.248Z,4.04
2018-12-18T08:46:21.260Z,4.05
2018-12-18T08:47:21.084Z,4.12
2018-12-18T08:48:21.069Z,4.30
2018-12-18T08:49:20.917Z,4.34
2018-12-18T08:50:20.878Z,4.41
2018-12-18T08:51:20.750Z,4.36
2018-12-18T08:52:20.787Z,4.52
2018-12-18T08:53:20.583Z,4.55
2018-12-18T08:54:20.596Z,4.66
2018-12-18T08:55:20.429Z,4.64
2018-12-18T08:56:20.404Z,4.72
2018-12-18T08:57:20.254Z,4.76
2018-12-18T08:58:20.215Z,4.83
2018-12-18T08:59:20.087Z,4.83
2018-12-18T09:00:20.120Z,5.00
2018-12-18T09:01:19.931Z,5.10
2018-12-18T09:02:19.939Z,5.17
2018-12-18T09:03:19.761Z,5.18
2018-12-18T09:04:19.741Z,5.28
2018-12-18T09:05:19.597Z,5.47
2018-12-18T09:06:19.548Z,5.57
2018-12-18T09:07:19.434Z,5.54
2018-12-18T09:08:19.516Z,5.54
2018-12-18T09:09:19.272Z,5.59
2018-12-18T09:10:19.268Z,5.63
2018-12-18T09:11:19.101Z,5.59
2018-12-18T09:12:19.080Z,5.54
2018-12-18T09:13:18.940Z,5.50
2018-12-18T09:14:18.883Z,5.54
2018-12-18T09:15:18.771Z,5.65
2018-12-18T09:16:18.796Z,5.54
2018-12-18T09:17:18.620Z,5.47
2018-12-18T09:18:18.603Z,5.62
2018-12-18T09:19:18.447Z,5.60
2018-12-18T09:20:19.435Z,5.67
2018-12-18T09:21:18.283Z,5.75
2018-12-18T09:22:18.218Z,5.80
2018-12-18T09:23:18.117Z,5.93
2018-12-18T09:24:18.129Z,5.95
2018-12-18T09:25:17.974Z,6.04
2018-12-18T09:26:17.959Z,6.15
2018-12-18T09:27:17.796Z,6.27
2018-12-18T09:28:17.748Z,6.32
2018-12-18T09:29:17.631Z,6.32
2018-12-18T09:30:17.656Z,6.44
2018-12-18T09:31:17.465Z,6.45
2018-12-18T09:32:17.393Z,6.52
2018-12-18T09:33:17.308Z,6.63
2018-12-18T09:34:17.274Z,6.68
2018-12-18T09:35:17.141Z,6.55
2018-12-18T09:36:17.081Z,6.63
2018-12-18T09:37:16.981Z,6.54
2018-12-18T09:38:16.995Z,6.54
2018-12-18T09:39:16.820Z,6.59
2018-12-18T09:40:16.800Z,6.60
2018-12-18T09:41:16.655Z,6.52
2018-12-18T09:42:16.610Z,6.54
2018-12-18T09:43:16.492Z,6.54
2018-12-18T09:44:16.520Z,6.68
2018-12-18T09:45:16.335Z,6.66
2018-12-18T09:46:16.329Z,6.87
2018-12-18T09:47:16.171Z,6.86
2018-12-18T09:48:16.193Z,6.90
2018-12-18T09:49:16.011Z,6.90
2018-12-18T09:50:15.946Z,6.90
2018-12-18T09:51:15.845Z,6.96
2018-12-18T09:52:15.852Z,7.05
2018-12-18T09:53:15.685Z,7.08
2018-12-18T09:54:15.665Z,7.24
2018-12-18T09:55:15.529Z,7.30
2018-12-18T09:56:15.475Z,7.26
2018-12-18T09:57:15.364Z,7.37
2018-12-18T09:58:15.386Z,7.45
2018-12-18T09:59:15.205Z,7.55
2018-12-18T10:00:15.186Z,7.55
2018-12-18T10:01:15.038Z,7.55
2018-12-18T10:02:15.001Z,7.63
2018-12-18T10:03:14.876Z,7.68
2018-12-18T10:04:14.911Z,7.85
2018-12-18T10:05:14.721Z,7.88
2018-12-18T10:06:14.720Z,7.85
2018-12-18T10:07:14.559Z,7.79
2018-12-18T10:08:14.554Z,7.67
2018-12-18T10:09:14.400Z,7.68
2018-12-18T10:10:14.340Z,7.72
2018-12-18T10:11:14.238Z,7.63
2018-12-18T10:12:15.268Z,7.75
2018-12-18T10:13:14.078Z,7.83
2018-12-18T10:14:14.053Z,7.76
2018-12-18T10:15:13.916Z,7.78
2018-12-18T10:16:13.864Z,7.81
2018-12-18T10:17:13.762Z,7.70
2018-12-18T10:18:13.775Z,7.56
2018-12-18T10:19:13.594Z,7.38
2018-12-18T10:20:13.582Z,7.21
2018-12-18T10:21:13.440Z,7.21
2018-12-18T10:22:13.399Z,7.09
2018-12-18T10:23:13.279Z,7.13
2018-12-18T10:24:13.303Z,7.20
2018-12-18T10:25:13.118Z,7.26
2018-12-18T10:26:13.109Z,7.24
2018-12-18T10:27:12.958Z,7.39
2018-12-18T10:28:12.938Z,7.42
2018-12-18T10:29:12.802Z,7.47
2018-12-18T10:30:12.832Z,7.55
2018-12-18T10:31:12.638Z,7.41
2018-12-18T10:32:12.636Z,7.35
2018-12-18T10:33:12.481Z,7.30
2018-12-18T10:34:12.446Z,7.41
2018-12-18T10:35:12.319Z,7.39
2018-12-18T10:36:12.256Z,7.34
2018-12-18T10:37:12.196Z,7.44
2018-12-18T10:38:12.166Z,7.44
2018-12-18T10:39:12.001Z,7.44
2018-12-18T10:40:11.978Z,7.47
2018-12-18T10:41:11.845Z,7.49
2018-12-18T10:42:11.784Z,7.53
2018-12-18T10:43:11.677Z,7.59
2018-12-18T10:44:11.608Z,7.67
2018-12-18T10:45:13.782Z,7.55
2018-12-18T10:46:11.500Z,7.64
2018-12-18T10:47:11.362Z,7.79
2018-12-18T10:48:11.311Z,7.67
2018-12-18T10:49:11.204Z,7.75
2018-12-18T10:50:11.225Z,7.78
2018-12-18T10:51:11.044Z,7.90
2018-12-18T10:52:10.970Z,7.94
2018-12-18T10:53:10.886Z,8.06
2018-12-18T10:54:10.838Z,7.97
2018-12-18T10:55:10.724Z,7.91
2018-12-18T10:56:10.751Z,7.91
2018-12-18T10:57:10.571Z,7.97
2018-12-18T10:58:10.558Z,7.86
2018-12-18T10:59:10.404Z,7.91
2018-12-18T11:00:10.366Z,7.93
2018-12-18T11:01:10.245Z,7.99
2018-12-18T11:02:10.280Z,7.90
2018-12-18T11:03:10.091Z,7.68
2018-12-18T11:04:10.090Z,7.67
2018-12-18T11:05:09.924Z,7.81
2018-12-18T11:06:10.311Z,7.88
2018-12-18T11:07:09.765Z,7.88
2018-12-18T11:08:09.804Z,7.81
2018-12-18T11:09:09.631Z,7.90
2018-12-18T11:10:09.612Z,7.90
2018-12-18T11:11:09.454Z,7.93
2018-12-18T11:12:09.422Z,7.85
2018-12-18T11:13:09.290Z,7.96
2018-12-18T11:14:09.335Z,7.97
2018-12-18T11:15:09.134Z,7.90
2018-12-18T11:16:09.145Z,7.73
2018-12-18T11:17:08.975Z,7.88
2018-12-18T11:18:08.948Z,7.83
2018-12-18T11:19:08.871Z,7.96
2018-12-18T11:20:08.756Z,7.93
2018-12-18T11:21:08.656Z,7.91
2018-12-18T11:22:08.674Z,7.93
2018-12-18T11:23:08.504Z,7.93
2018-12-18T11:24:08.477Z,7.86
2018-12-18T11:25:08.336Z,7.96
2018-12-18T11:26:08.284Z,7.90
2018-12-18T11:27:08.183Z,8.00
2018-12-18T11:28:08.195Z,7.91
2018-12-18T11:29:08.021Z,7.88
2018-12-18T11:30:08.004Z,7.83
2018-12-18T11:31:07.862Z,7.79
2018-12-18T11:32:07.813Z,7.68
2018-12-18T11:33:07.704Z,7.67
2018-12-18T11:34:07.734Z,7.68
2018-12-18T11:35:07.546Z,7.72
2018-12-18T11:36:07.533Z,7.63
2018-12-18T11:37:07.389Z,7.70
2018-12-18T11:38:07.340Z,7.70
2018-12-18T11:39:07.227Z,7.72
2018-12-18T11:40:07.253Z,7.70
2018-12-18T11:41:07.068Z,7.72
2018-12-18T11:42:07.059Z,7.72
2018-12-18T11:43:06.911Z,7.78
2018-12-18T11:44:06.869Z,7.91
2018-12-18T11:45:06.781Z,7.96
2018-12-18T11:46:06.778Z,7.90
2018-12-18T11:47:06.592Z,7.91
2018-12-18T11:48:06.586Z,7.91
2018-12-18T11:49:06.434Z,7.86
2018-12-18T11:50:06.392Z,7.90
2018-12-18T11:51:06.275Z,7.82
2018-12-18T11:52:06.307Z,7.81
2018-12-18T11:53:06.119Z,7.94
2018-12-18T11:54:06.114Z,8.00
2018-12-18T11:55:05.958Z,7.97
2018-12-18T11:56:05.929Z,7.86
2018-12-18T11:57:05.801Z,7.76
2018-12-18T11:58:05.847Z,7.70
2018-12-18T11:59:05.644Z,7.62
2018-12-18T12:00:05.640Z,7.48
2018-12-18T12:01:05.485Z,7.39
2018-12-18T12:02:05.450Z,7.29
2018-12-18T12:03:05.326Z,7.30
2018-12-18T12:04:05.258Z,7.31
2018-12-18T12:05:05.164Z,7.29
2018-12-18T12:06:06.193Z,7.05
2018-12-18T12:07:05.005Z,6.96
2018-12-18T12:08:04.979Z,6.98
2018-12-18T12:09:04.848Z,6.91
2018-12-18T12:10:04.786Z,6.96
2018-12-18T12:11:04.691Z,7.06
2018-12-18T12:12:04.695Z,7.01
2018-12-18T12:13:04.528Z,6.98
2018-12-18T12:14:04.506Z,6.96
2018-12-18T12:15:04.368Z,7.02
2018-12-18T12:16:04.313Z,7.03
2018-12-18T12:17:04.212Z,6.91
2018-12-18T12:18:04.226Z,6.84
2018-12-18T12:19:04.048Z,6.81
2018-12-18T12:20:04.032Z,6.81
2018-12-18T12:21:03.890Z,6.84
2018-12-18T12:22:03.840Z,6.70
2018-12-18T12:23:03.731Z,6.69
2018-12-18T12:24:03.752Z,6.63
2018-12-18T12:25:03.575Z,6.62
2018-12-18T12:26:03.563Z,6.66
2018-12-18T12:27:03.413Z,6.63
2018-12-18T12:28:03.370Z,6.47
2018-12-18T12:29:03.253Z,6.45
2018-12-18T12:30:03.168Z,6.51
2018-12-18T12:31:03.193Z,6.44
2018-12-18T12:32:03.014Z,6.44
2018-12-18T12:33:02.994Z,6.39
2018-12-18T12:34:02.850Z,6.44
2018-12-18T12:35:02.800Z,6.51
2018-12-18T12:36:02.692Z,6.66
2018-12-18T12:37:02.714Z,6.60
2018-12-18T12:38:02.528Z,6.75
2018-12-18T12:39:02.519Z,6.86
2018-12-18T12:40:02.371Z,6.90
2018-12-18T12:41:04.378Z,6.90
2018-12-18T12:42:02.210Z,6.72
2018-12-18T12:43:02.241Z,6.63
2018-12-18T12:44:02.055Z,6.54
2018-12-18T12:45:02.050Z,6.41
2018-12-18T12:46:01.886Z,6.36
2018-12-18T12:47:01.865Z,6.32
2018-12-18T12:48:01.734Z,6.36
2018-12-18T12:49:01.669Z,6.33
2018-12-18T12:50:01.574Z,6.29
2018-12-18T12:51:01.579Z,6.32
2018-12-18T12:52:01.409Z,6.24
2018-12-18T12:53:01.386Z,6.24
2018-12-18T12:54:01.248Z,6.21
2018-12-18T12:55:01.194Z,6.27
2018-12-18T12:56:01.093Z,6.32
2018-12-18T12:57:01.105Z,6.24
2018-12-18T12:58:00.923Z,6.14
2018-12-18T12:59:00.909Z,6.14
2018-12-18T13:00:00.767Z,6.18
2018-12-18T13:01:00.721Z,6.21
2018-12-18T13:02:00.607Z,6.21
2018-12-18T13:03:00.634Z,6.14
2018-12-18T13:04:00.448Z,6.22
2018-12-18T13:05:00.445Z,6.18
2018-12-18T13:06:00.285Z,5.99
2018-12-18T13:07:00.247Z,6.06
2018-12-18T13:08:00.121Z,5.90
2018-12-18T13:09:00.160Z,6.03
2018-12-18T13:09:59.966Z,5.80
2018-12-18T13:10:59.965Z,5.81
2018-12-18T13:11:59.802Z,6.00
2018-12-18T13:12:59.774Z,5.99
2018-12-18T13:13:59.647Z,5.90
2018-12-18T13:14:59.581Z,5.77
2018-12-18T13:15:59.480Z,5.86
2018-12-18T13:16:59.501Z,5.70